METAR Analyzer

一覧表示

Hello, Guest. (Login)

LTBA/ISL  -  イスタンブール・アタテュルク

観測日時
2021-01-27 00:20 (UTC) (18分前)
気温
9
露点
7
湿数
2
相対湿度
87.3%
QNH
999hPa
推定現地気圧
993.1hPa
推定海面気圧
999.1hPa
体感温度
-3.2
(無風時)
11.8
HI
8.2
気温前日比
±0
体感温度前日比
-5.9
HI前日比
-0.2
水平視程
8000m
鉛直視程
データなし
雲底高度
3200ft AGL
V/I
VMC (VFR)
RVR
No RVR data
卓越風
11kt from 360°
ガスト
No gust
降水
弱いしゅう雨性の雨
その他の天気
報告なし
少しの雲 @ 1000ft AGL / 隙間のある雲 @ 3200ft AGL / 隙間のある雲 @ 8000ft AGL

LTBA 270020Z 36011KT 8000 -SHRA FEW010 BKN032 BKN080 09/07 Q0999 NOSIG RMK RWY23 36013KT

LTFM/IST  -  イスタンブール (新)

観測日時
2021-01-27 00:20 (UTC) (18分前)
気温
6
露点
5
湿数
1
相対湿度
93.3%
QNH
1000hPa
推定現地気圧
988.3hPa
推定海面気圧
1000.3hPa
体感温度
-8.2
(無風時)
9.1
HI
5.1
気温前日比
-6
体感温度前日比
-9.2
HI前日比
-6.2
水平視程
8000m
鉛直視程
データなし
雲底高度
400ft AGL
V/I
SVMC (SVFR)
RVR
No RVR data
卓越風
12kt from 340°
ガスト
No gust
降水
中程度のしゅう雨性の雨
その他の天気
報告なし
隙間のある雲 @ 400ft AGL / 隙間のある雲 @ 2200ft AGL

LTFM 270020Z 34012KT 8000 SHRA BKN004 BKN022 06/05 Q1000 NOSIG RMK RWY17L 33011KT RWY34L 33014KT RWY16R 32009KT 280V340 RWY36 34011KT RWY18 34012KT

5.2msec